Time;durP1;ratioP1;P1;durP2;ratioP2;P2;SDS_P1;SDS_P2;PMS_P1;PMS_P2;Temp;Humidity;BMP_temperature;BMP_pressure;BME280_temperature;BME280_humidity;BME280_pressure;Samples;Min_cycle;Max_cycle;Signal;HPM_P1;HPM_P2
2022/02/04 00:03:03;;;;;;;25.42;16.23;;;6.10;99.90;;;;;;5106703;28;20119;-55
2022/02/04 00:25:44;;;;;;;24.98;16.15;;;6.10;99.90;;;;;;5110594;28;20085;-56
2022/02/04 00:28:17;;;;;;;27.05;15.43;;;6.10;99.90;;;;;;5112099;28;20023;-53
2022/02/04 00:30:48;;;;;;;25.83;15.77;;;6.00;99.90;;;;;;5112060;28;20028;-53
2022/02/04 00:33:15;;;;;;;24.02;16.20;;;6.00;99.90;;;;;;5110114;28;20028;-57
2022/02/04 00:40:39;;;;;;;25.98;17.27;;;6.00;99.90;;;;;;5110998;28;20035;-54
2022/02/04 00:43:09;;;;;;;27.70;16.42;;;6.00;99.90;;;;;;5110460;28;20023;-57
2022/02/04 00:56:13;;;;;;;27.42;16.90;;;6.00;99.90;;;;;;5112103;28;20050;-55
2022/02/04 01:26:20;;;;;;;26.83;17.85;;;6.00;99.90;;;;;;5109168;28;20460;-59
2022/02/04 01:28:49;;;;;;;32.05;19.02;;;6.00;99.90;;;;;;5106668;28;20819;-58
2022/02/04 01:31:17;;;;;;;30.95;18.02;;;6.00;99.90;;;;;;5109249;28;20046;-57
2022/02/04 01:33:44;;;;;;;29.88;19.73;;;6.00;99.90;;;;;;5108623;28;20073;-57
2022/02/04 01:36:10;;;;;;;31.70;18.67;;;6.00;99.90;;;;;;5110545;28;20046;-55
2022/02/04 01:38:36;;;;;;;32.55;19.90;;;6.00;99.90;;;;;;5110987;28;20533;-54
2022/02/04 01:41:01;;;;;;;33.97;19.52;;;6.00;99.90;;;;;;5110138;28;20103;-55
2022/02/04 01:43:27;;;;;;;29.92;19.30;;;6.10;99.90;;;;;;5091721;28;20028;-58
2022/02/04 01:45:58;;;;;;;31.80;20.42;;;6.00;99.90;;;;;;5109728;28;20081;-57
2022/02/04 01:48:24;;;;;;;32.95;19.52;;;6.10;99.90;;;;;;5109043;27;20039;-51
2022/02/04 01:50:51;;;;;;;32.25;20.77;;;6.10;99.90;;;;;;5109572;28;20563;-56
2022/02/04 01:53:20;;;;;;;34.30;19.98;;;6.10;99.90;;;;;;5110293;28;20027;-55
2022/02/04 01:55:47;;;;;;;31.27;22.10;;;6.10;99.90;;;;;;5110008;28;20066;-55
2022/02/04 01:58:14;;;;;;;29.27;19.52;;;6.10;99.90;;;;;;5108545;28;20456;-55
2022/02/04 02:00:39;;;;;;;34.38;20.35;;;6.00;99.90;;;;;;5106953;28;20035;-54
2022/02/04 02:03:07;;;;;;;32.10;20.33;;;6.00;99.90;;;;;;5107877;28;20389;-54
2022/02/04 02:05:33;;;;;;;35.30;20.33;;;6.10;99.90;;;;;;5109581;28;20119;-54
2022/02/04 02:08:10;;;;;;;33.47;20.35;;;6.10;99.90;;;;;;5091492;28;20053;-54
2022/02/04 02:10:36;;;;;;;32.63;21.33;;;6.10;99.90;;;;;;5110434;28;20019;-57
2022/02/04 02:56:02;;;;;;;32.50;23.13;;;6.10;99.90;;;;;;5108954;28;20027;-56
2022/02/04 02:58:31;;;;;;;36.15;22.80;;;6.10;99.90;;;;;;5109490;28;20032;-56
2022/02/04 03:01:02;;;;;;;40.33;24.42;;;6.10;99.90;;;;;;5108865;28;20047;-54
2022/02/04 03:03:30;;;;;;;42.97;23.55;;;6.10;99.90;;;;;;5108423;28;20053;-58
2022/02/04 03:05:56;;;;;;;36.83;23.00;;;6.10;99.90;;;;;;5109344;28;20062;-56
2022/02/04 03:08:22;;;;;;;34.13;22.15;;;6.10;99.90;;;;;;5107938;28;20028;-57
2022/02/04 03:10:57;;;;;;;38.47;23.55;;;6.10;99.90;;;;;;5109356;28;20019;-56
2022/02/04 03:13:25;;;;;;;39.70;24.77;;;6.10;99.90;;;;;;5107551;28;20024;-54
2022/02/04 03:15:58;;;;;;;41.50;24.38;;;6.10;99.90;;;;;;5108538;28;20073;-55
2022/02/04 03:18:27;;;;;;;44.60;25.48;;;6.10;99.90;;;;;;5107569;28;20115;-55
2022/02/04 03:20:57;;;;;;;36.97;22.30;;;6.10;99.90;;;;;;5089748;28;20027;-55
2022/02/04 03:23:24;;;;;;;40.92;24.63;;;6.10;99.90;;;;;;5108408;28;20028;-54
2022/02/04 03:25:56;;;;;;;42.28;24.77;;;6.10;99.90;;;;;;5109071;28;20566;-53
2022/02/04 03:28:26;;;;;;;37.58;24.02;;;6.20;99.90;;;;;;5107462;28;20024;-55
2022/02/04 03:30:53;;;;;;;34.95;23.20;;;6.10;99.90;;;;;;5108208;28;20097;-55
2022/02/04 03:33:22;;;;;;;44.13;25.42;;;6.10;99.90;;;;;;5108454;28;20102;-55
2022/02/04 03:35:48;;;;;;;39.03;25.23;;;6.10;99.90;;;;;;5108314;28;20032;-55
2022/02/04 03:38:14;;;;;;;44.00;26.35;;;6.10;99.90;;;;;;5107411;28;20094;-54
2022/02/04 03:40:39;;;;;;;37.40;23.75;;;6.10;99.90;;;;;;5108595;28;20817;-52
2022/02/04 03:43:05;;;;;;;40.22;24.85;;;6.10;99.90;;;;;;5108778;28;20028;-54
2022/02/04 03:45:31;;;;;;;39.35;25.58;;;6.10;99.90;;;;;;5108861;28;20023;-56
2022/02/04 03:47:56;;;;;;;39.72;26.65;;;6.10;99.90;;;;;;5108202;28;20095;-56
2022/02/04 03:50:22;;;;;;;45.10;27.88;;;6.10;99.90;;;;;;5090069;28;20043;-54
2022/02/04 03:52:48;;;;;;;39.55;25.42;;;6.10;99.90;;;;;;5108651;28;20023;-57
2022/02/04 03:55:13;;;;;;;40.33;25.27;;;6.10;99.90;;;;;;5089241;28;20106;-54
2022/02/04 03:57:39;;;;;;;42.47;26.52;;;6.20;99.90;;;;;;5108479;28;20042;-56
2022/02/04 04:00:07;;;;;;;36.03;25.00;;;6.20;99.90;;;;;;5108847;28;20023;-52
2022/02/04 04:02:32;;;;;;;44.10;26.73;;;6.10;99.90;;;;;;5107814;28;20073;-57
2022/02/04 04:04:58;;;;;;;41.90;26.75;;;6.20;99.90;;;;;;5108542;28;20027;-56
2022/02/04 04:07:23;;;;;;;38.45;25.50;;;6.20;99.90;;;;;;5090110;28;20051;-57
2022/02/04 04:09:50;;;;;;;41.72;27.52;;;6.20;99.90;;;;;;5104729;28;20028;-56
2022/02/04 04:12:17;;;;;;;41.88;25.17;;;6.20;99.90;;;;;;5090483;28;20024;-54
2022/02/04 04:14:45;;;;;;;41.45;27.33;;;6.10;99.90;;;;;;5107064;28;20058;-56
2022/02/04 04:17:11;;;;;;;46.10;29.27;;;6.10;99.90;;;;;;5107814;28;20030;-53
2022/02/04 04:19:36;;;;;;;45.08;28.02;;;6.10;99.90;;;;;;5107582;28;20028;-54
2022/02/04 04:22:02;;;;;;;43.92;28.42;;;6.20;99.90;;;;;;5108242;28;20483;-56
2022/02/04 04:24:28;;;;;;;40.72;27.25;;;6.10;99.90;;;;;;5107915;28;20143;-59
2022/02/04 04:26:53;;;;;;;45.38;28.98;;;6.10;99.90;;;;;;5087883;28;20028;-52
2022/02/04 04:29:19;;;;;;;42.08;27.63;;;6.10;99.90;;;;;;5108343;28;20032;-55
2022/02/04 04:31:44;;;;;;;43.60;28.20;;;6.10;99.90;;;;;;5106094;28;20054;-55
2022/02/04 04:34:10;;;;;;;43.15;27.23;;;6.10;99.90;;;;;;5106635;28;20069;-55
2022/02/04 04:36:35;;;;;;;38.88;27.92;;;6.10;99.90;;;;;;5106913;28;20043;-56
2022/02/04 04:39:16;;;;;;;42.78;28.45;;;6.10;99.90;;;;;;5108160;28;20521;-57
2022/02/04 04:42:08;;;;;;;42.35;29.00;;;6.10;99.90;;;;;;5107737;28;20036;-51
2022/02/04 05:30:52;;;;;;;43.25;26.50;;;6.00;99.90;;;;;;5110769;28;20033;-56
2022/02/04 05:33:17;;;;;;;41.53;25.90;;;6.00;99.90;;;;;;5110689;28;20110;-57
2022/02/04 05:35:43;;;;;;;41.30;25.05;;;6.00;99.90;;;;;;5110522;28;20483;-57
2022/02/04 05:38:11;;;;;;;39.63;25.50;;;6.00;99.90;;;;;;5109078;28;20394;-58
2022/02/04 05:40:41;;;;;;;40.42;24.95;;;6.00;99.90;;;;;;5110143;28;20058;-55
2022/02/04 05:43:16;;;;;;;40.97;25.45;;;6.00;99.90;;;;;;5109987;28;20023;-57
2022/02/04 05:45:51;;;;;;;39.17;24.67;;;6.00;99.90;;;;;;5092641;28;20028;-57
2022/02/04 05:48:17;;;;;;;37.92;25.35;;;6.00;99.90;;;;;;5110191;28;20023;-58
2022/02/04 05:53:22;;;;;;;38.35;24.58;;;6.00;99.90;;;;;;5110739;28;20027;-57
2022/02/04 06:00:55;;;;;;;41.63;25.20;;;6.00;99.90;;;;;;5109588;28;20034;-56
2022/02/04 06:22:21;;;;;;;38.90;23.92;;;5.90;99.90;;;;;;5109083;28;20111;-54
2022/02/04 06:24:48;;;;;;;36.33;22.65;;;5.90;99.90;;;;;;5109748;28;20563;-54
2022/02/04 06:27:15;;;;;;;38.08;23.40;;;5.90;99.90;;;;;;5110069;28;20582;-54
2022/02/04 06:29:41;;;;;;;37.88;25.33;;;5.90;99.90;;;;;;5107808;28;20484;-56
2022/02/04 06:32:07;;;;;;;38.80;24.52;;;5.90;99.90;;;;;;5108526;28;20028;-55
2022/02/04 06:34:33;;;;;;;37.90;23.40;;;5.90;99.90;;;;;;5090876;28;20050;-54
2022/02/04 06:36:59;;;;;;;38.30;24.88;;;5.90;99.90;;;;;;5107674;28;20074;-54
2022/02/04 06:39:24;;;;;;;35.75;23.52;;;5.90;99.90;;;;;;5107944;28;20059;-59
2022/02/04 06:41:50;;;;;;;38.13;24.13;;;5.90;99.90;;;;;;5109335;28;20070;-58
2022/02/04 06:44:15;;;;;;;37.08;23.05;;;6.00;99.90;;;;;;5109700;28;20032;-57
2022/02/04 06:46:41;;;;;;;34.50;23.35;;;6.00;99.90;;;;;;5109070;28;20042;-57
2022/02/04 06:49:07;;;;;;;43.67;24.42;;;6.00;99.90;;;;;;5108792;28;20024;-55
2022/02/04 06:51:32;;;;;;;37.55;23.90;;;6.00;99.90;;;;;;5110041;28;20035;-57
2022/02/04 06:53:58;;;;;;;37.67;23.52;;;6.00;99.90;;;;;;5109875;28;20059;-57
2022/02/04 06:56:24;;;;;;;39.30;24.23;;;6.00;99.90;;;;;;5109422;28;20035;-56
2022/02/04 06:58:49;;;;;;;36.40;23.23;;;6.00;99.90;;;;;;5108509;28;20034;-55
2022/02/04 07:01:15;;;;;;;36.50;23.58;;;6.00;99.90;;;;;;5109857;28;20027;-59
2022/02/04 07:03:41;;;;;;;40.40;24.05;;;6.10;99.90;;;;;;5108755;28;20055;-59
2022/02/04 07:06:07;;;;;;;36.42;22.15;;;6.00;99.90;;;;;;5109375;28;20051;-57
2022/02/04 07:12:17;;;;;;;34.63;23.63;;;6.00;99.90;;;;;;5070280;28;20061;-58
2022/02/04 07:16:42;;;;;;;37.33;24.13;;;6.00;99.90;;;;;;5108376;28;20027;-58
2022/02/04 07:21:52;;;;;;;40.47;22.52;;;6.10;99.90;;;;;;5108452;28;20115;-56
2022/02/04 07:24:17;;;;;;;42.95;23.85;;;6.10;99.90;;;;;;5108077;28;20464;-56
2022/02/04 07:26:43;;;;;;;38.08;24.27;;;6.10;99.90;;;;;;5109074;28;20028;-59
2022/02/04 07:29:08;;;;;;;37.50;24.33;;;6.10;99.90;;;;;;5108095;28;20411;-57
2022/02/04 07:31:38;;;;;;;38.13;24.40;;;6.10;99.90;;;;;;5108720;28;20034;-55
2022/02/04 07:34:40;;;;;;;34.85;22.70;;;6.10;99.90;;;;;;5108221;28;20028;-58
2022/02/04 07:42:00;;;;;;;36.65;23.85;;;6.20;99.90;;;;;;5108873;28;20032;-56
2022/02/04 07:44:26;;;;;;;36.42;24.27;;;6.20;99.90;;;;;;5106825;28;20028;-54
2022/02/04 07:46:51;;;;;;;38.58;24.77;;;6.20;99.90;;;;;;5104820;28;20046;-52
2022/02/04 07:49:17;;;;;;;38.22;24.38;;;6.20;99.90;;;;;;5107075;28;20024;-57
2022/02/04 07:51:42;;;;;;;39.58;25.50;;;6.20;99.90;;;;;;5108236;28;20574;-57
2022/02/04 07:54:08;;;;;;;36.65;23.60;;;6.20;99.90;;;;;;5108683;28;20032;-55
2022/02/04 07:56:34;;;;;;;35.22;23.55;;;6.30;99.90;;;;;;5108647;28;20088;-56
2022/02/04 07:59:06;;;;;;;38.85;25.15;;;6.30;99.90;;;;;;5108827;28;20062;-56
2022/02/04 08:01:32;;;;;;;39.88;25.35;;;6.30;99.90;;;;;;5099594;22;20041;-52
2022/02/04 08:06:28;;;;;;;37.70;25.67;;;6.30;99.90;;;;;;5068179;28;20028;-54
2022/02/04 08:12:04;;;;;;;36.90;23.80;;;6.30;99.90;;;;;;5069451;28;20051;-53
2022/02/04 08:22:31;;;;;;;38.45;24.45;;;6.40;99.90;;;;;;5068632;28;20496;-55
2022/02/04 08:32:49;;;;;;;40.55;24.90;;;6.50;99.90;;;;;;5072406;28;20499;-53
2022/02/04 08:35:35;;;;;;;34.97;23.98;;;6.50;99.90;;;;;;5071063;28;20020;-52
2022/02/04 08:49:20;;;;;;;35.80;24.02;;;6.60;99.90;;;;;;5072705;28;20492;-52
2022/02/04 08:54:20;;;;;;;37.58;25.17;;;6.70;99.90;;;;;;5071614;28;20139;-54
2022/02/04 08:57:07;;;;;;;36.55;23.88;;;6.70;99.90;;;;;;5072655;28;20039;-55
2022/02/04 09:02:31;;;;;;;39.20;23.95;;;6.70;99.90;;;;;;5071097;28;20047;-54
2022/02/04 09:04:58;;;;;;;35.13;24.38;;;6.70;99.90;;;;;;5071642;28;20029;-54
2022/02/04 09:07:28;;;;;;;34.38;23.42;;;6.70;99.90;;;;;;5073507;28;20055;-55
2022/02/04 09:09:58;;;;;;;36.92;24.02;;;6.80;99.90;;;;;;5073183;28;20024;-53
2022/02/04 09:18:10;;;;;;;32.30;22.90;;;6.90;99.90;;;;;;5071808;28;20435;-56
2022/02/04 09:20:44;;;;;;;36.08;23.63;;;6.90;99.90;;;;;;5071627;28;20071;-54
2022/02/04 09:23:11;;;;;;;31.98;22.02;;;6.90;99.90;;;;;;5070874;28;20013;-52
2022/02/04 09:25:37;;;;;;;36.28;23.83;;;6.90;99.90;;;;;;5054438;28;20115;-53
2022/02/04 09:28:04;;;;;;;34.88;22.63;;;7.00;99.90;;;;;;5070572;28;20021;-52
2022/02/04 09:30:29;;;;;;;30.88;21.27;;;7.00;99.90;;;;;;5071790;28;20021;-53
2022/02/04 09:32:55;;;;;;;30.45;22.55;;;7.00;99.90;;;;;;5071229;28;20031;-55
2022/02/04 09:35:22;;;;;;;31.60;21.38;;;7.00;99.90;;;;;;5071320;28;20551;-53
2022/02/04 09:37:50;;;;;;;31.58;21.95;;;7.10;99.90;;;;;;5071363;28;20365;-51
2022/02/04 09:40:17;;;;;;;30.75;21.25;;;7.10;99.90;;;;;;5070884;28;20089;-51
2022/02/04 09:42:44;;;;;;;29.42;21.45;;;7.10;99.90;;;;;;5070655;28;20056;-53
2022/02/04 09:45:14;;;;;;;29.30;20.77;;;7.20;99.90;;;;;;5070301;28;20675;-53
2022/02/04 09:47:42;;;;;;;28.30;20.65;;;7.20;99.90;;;;;;5070311;28;20052;-53
2022/02/04 09:50:14;;;;;;;30.58;19.88;;;7.20;99.90;;;;;;5069988;28;20028;-52
2022/02/04 10:18:08;;;;;;;25.27;19.00;;;7.50;99.90;;;;;;5070382;28;20055;-52
2022/02/04 10:20:34;;;;;;;22.15;17.80;;;7.60;99.90;;;;;;5070364;28;20495;-55
2022/02/04 10:23:01;;;;;;;24.85;18.83;;;7.60;99.90;;;;;;5069885;28;20078;-51
2022/02/04 10:25:34;;;;;;;25.85;18.75;;;7.60;99.90;;;;;;5069649;28;20032;-53
2022/02/04 10:28:04;;;;;;;24.35;16.85;;;7.70;99.90;;;;;;5068840;28;20036;-55
2022/02/04 10:30:32;;;;;;;21.88;15.93;;;7.70;99.90;;;;;;5069313;28;20024;-51
2022/02/04 10:32:59;;;;;;;23.25;17.45;;;7.70;99.90;;;;;;5068875;28;20021;-52
2022/02/04 10:35:31;;;;;;;26.80;16.65;;;7.70;99.90;;;;;;5069509;28;20025;-51
2022/02/04 10:38:21;;;;;;;22.40;16.40;;;7.70;99.90;;;;;;5069316;28;20104;-51
2022/02/04 10:41:02;;;;;;;22.50;16.65;;;7.80;99.90;;;;;;5069789;28;20048;-51
2022/02/04 10:46:33;;;;;;;19.50;15.63;;;7.90;99.90;;;;;;5070082;28;20062;-52
2022/02/04 11:04:28;;;;;;;20.17;14.63;;;7.90;99.90;;;;;;5069096;28;20112;-51
2022/02/04 11:54:56;;;;;;;14.77;12.02;;;8.70;99.90;;;;;;5067931;28;20024;-52
2022/02/04 11:57:34;;;;;;;13.55;10.50;;;8.80;99.90;;;;;;5066989;28;20278;-53
2022/02/04 12:00:18;;;;;;;11.73;9.95;;;8.80;99.90;;;;;;5065556;28;20405;-54
2022/02/04 12:02:45;;;;;;;12.27;10.40;;;8.80;99.90;;;;;;5068107;28;20087;-51
2022/02/04 12:05:16;;;;;;;12.18;10.38;;;8.70;99.90;;;;;;5068223;28;20020;-52
2022/02/04 12:08:00;;;;;;;11.10;10.00;;;8.70;99.90;;;;;;5051096;28;20133;-53
2022/02/04 12:10:32;;;;;;;12.05;10.40;;;8.60;99.90;;;;;;5067423;28;20032;-50
2022/02/04 12:13:09;;;;;;;10.15;9.15;;;8.60;99.90;;;;;;5065773;28;20024;-55
2022/02/04 12:15:35;;;;;;;13.52;10.10;;;8.50;99.90;;;;;;5068212;28;20541;-51
2022/02/04 12:18:05;;;;;;;11.13;10.00;;;8.40;99.90;;;;;;5067797;28;20032;-54
2022/02/04 12:20:53;;;;;;;12.35;9.57;;;8.40;99.90;;;;;;5067185;28;20442;-54
2022/02/04 12:23:40;;;;;;;11.95;9.52;;;8.40;99.90;;;;;;5051289;28;20048;-51
2022/02/04 12:26:09;;;;;;;9.80;8.15;;;8.30;99.90;;;;;;5067147;28;20032;-53
2022/02/04 12:28:59;;;;;;;11.75;9.27;;;8.30;99.90;;;;;;5066985;28;20025;-53
2022/02/04 12:31:38;;;;;;;11.95;9.18;;;8.30;99.90;;;;;;5052301;28;20936;-52
2022/02/04 12:34:14;;;;;;;9.82;8.73;;;8.30;99.90;;;;;;5066118;28;20023;-55
2022/02/04 12:36:43;;;;;;;12.20;8.93;;;8.20;99.90;;;;;;5067577;28;20028;-53
2022/02/04 12:39:14;;;;;;;9.80;8.30;;;8.30;99.90;;;;;;5067643;28;20470;-54
2022/02/04 12:41:44;;;;;;;9.15;8.23;;;8.30;99.90;;;;;;5067309;28;20243;-52
2022/02/04 12:44:16;;;;;;;10.68;7.75;;;8.30;99.90;;;;;;5048577;28;20020;-53
2022/02/04 12:46:48;;;;;;;11.05;7.82;;;8.20;99.90;;;;;;5067259;28;20028;-52
2022/02/04 12:49:17;;;;;;;8.60;7.70;;;8.20;99.90;;;;;;5066721;28;20046;-52
2022/02/04 12:52:02;;;;;;;9.00;7.95;;;8.20;99.90;;;;;;5067274;28;20020;-53
2022/02/04 12:54:34;;;;;;;9.43;7.57;;;8.20;99.90;;;;;;5048463;28;20083;-52
2022/02/04 13:08:21;;;;;;;7.82;6.38;;;8.20;99.90;;;;;;5067164;28;20043;-53
2022/02/04 13:11:00;;;;;;;9.45;6.15;;;8.10;99.90;;;;;;5066472;28;20133;-52
2022/02/04 13:13:32;;;;;;;8.75;6.80;;;8.10;99.90;;;;;;5070400;28;20496;-52
2022/02/04 13:15:58;;;;;;;8.13;6.22;;;8.10;99.90;;;;;;5070474;28;20048;-54
2022/02/04 13:18:25;;;;;;;7.55;6.35;;;8.10;99.90;;;;;;5054324;28;20090;-55
2022/02/04 13:20:56;;;;;;;6.97;5.25;;;8.10;99.90;;;;;;5070111;28;20024;-53
2022/02/04 13:23:24;;;;;;;7.70;5.90;;;8.10;99.90;;;;;;5070242;28;20648;-52
2022/02/04 13:25:52;;;;;;;6.03;5.43;;;8.10;99.90;;;;;;5071259;28;20510;-55
2022/02/04 13:28:21;;;;;;;6.97;5.07;;;8.10;99.90;;;;;;5072275;28;20058;-52
2022/02/04 13:31:04;;;;;;;6.43;5.80;;;8.10;99.90;;;;;;5069405;28;20028;-54
2022/02/04 13:33:39;;;;;;;7.60;5.18;;;8.10;99.90;;;;;;5070494;28;20024;-53
2022/02/04 13:36:31;;;;;;;7.38;5.30;;;8.10;99.90;;;;;;5069244;28;20029;-55
2022/02/04 13:44:35;;;;;;;8.43;5.57;;;8.10;99.90;;;;;;5069439;28;20024;-56
2022/02/04 14:03:21;;;;;;;5.43;4.32;;;7.90;99.90;;;;;;5069798;28;20048;-55
2022/02/04 14:06:00;;;;;;;8.13;3.90;;;7.90;99.90;;;;;;5069129;28;20036;-56
2022/02/04 14:08:32;;;;;;;5.38;3.35;;;7.90;99.90;;;;;;5069533;28;20036;-51
2022/02/04 14:11:01;;;;;;;5.45;3.35;;;7.90;99.90;;;;;;5069227;28;20017;-51
2022/02/04 14:13:28;;;;;;;5.43;3.42;;;8.00;99.90;;;;;;5052130;28;20021;-54
2022/02/04 14:15:59;;;;;;;4.50;3.00;;;8.00;99.90;;;;;;5051275;28;20058;-51
2022/02/04 14:18:27;;;;;;;4.60;3.22;;;7.90;99.90;;;;;;5068251;28;20518;-51
2022/02/04 14:20:54;;;;;;;4.55;2.78;;;7.90;99.90;;;;;;5069313;28;20052;-52
2022/02/04 14:23:20;;;;;;;3.80;2.70;;;8.00;99.90;;;;;;5067783;28;20031;-51
2022/02/04 14:28:35;;;;;;;4.53;2.53;;;8.00;99.90;;;;;;5052757;28;20032;-56
2022/02/04 14:31:14;;;;;;;3.33;2.85;;;8.00;99.90;;;;;;5069324;28;20027;-54
2022/02/04 15:03:41;;;;;;;8.77;3.22;;;7.90;99.90;;;;;;5067615;28;20029;-56
2022/02/04 15:06:14;;;;;;;5.55;3.58;;;7.90;99.90;;;;;;5067662;28;20097;-55
2022/02/04 15:08:44;;;;;;;3.42;2.80;;;7.90;99.90;;;;;;5068713;28;20555;-52
2022/02/04 15:11:19;;;;;;;3.67;3.35;;;7.90;99.90;;;;;;5068318;28;20019;-55
2022/02/04 15:13:47;;;;;;;4.47;4.00;;;7.90;99.90;;;;;;5068374;28;20019;-52
2022/02/04 15:16:12;;;;;;;3.72;2.97;;;7.90;99.90;;;;;;5067554;28;20083;-55
2022/02/04 15:18:41;;;;;;;7.88;3.83;;;7.90;99.90;;;;;;5068547;28;20052;-54
2022/02/04 15:21:13;;;;;;;4.15;3.63;;;7.90;99.90;;;;;;5067832;28;20941;-53
2022/02/04 15:23:41;;;;;;;18.88;11.68;;;7.90;99.90;;;;;;5068274;28;20024;-52
2022/02/04 15:26:09;;;;;;;5.50;4.15;;;7.90;99.90;;;;;;5068664;28;20060;-52
2022/02/04 15:28:45;;;;;;;7.47;4.47;;;7.80;99.90;;;;;;5068565;28;20013;-52
2022/02/04 15:31:23;;;;;;;5.13;3.97;;;7.80;99.90;;;;;;5066882;28;20020;-54
2022/02/04 15:33:51;;;;;;;5.90;4.63;;;7.80;99.90;;;;;;5067111;28;20021;-53
2022/02/04 15:36:24;;;;;;;4.57;4.10;;;7.70;99.90;;;;;;5068186;28;20032;-53
2022/02/04 15:38:50;;;;;;;5.70;4.28;;;7.70;99.90;;;;;;5064481;28;20052;-52
2022/02/04 15:41:16;;;;;;;7.90;7.20;;;7.70;99.90;;;;;;5068176;28;20021;-52
2022/02/04 15:43:42;;;;;;;6.45;5.28;;;7.70;99.90;;;;;;5068292;28;20407;-52
2022/02/04 15:46:33;;;;;;;5.82;5.28;;;7.60;99.90;;;;;;5068805;28;20405;-55
2022/02/04 15:54:45;;;;;;;5.97;3.90;;;7.60;99.90;;;;;;5068153;28;20094;-52
2022/02/04 16:04:52;;;;;;;4.20;3.80;;;7.60;99.90;;;;;;5068770;28;20404;-54
2022/02/04 16:07:21;;;;;;;5.07;3.90;;;7.50;99.90;;;;;;5069610;28;20031;-54
2022/02/04 16:09:54;;;;;;;5.13;3.65;;;7.50;99.90;;;;;;5068622;28;20097;-52
2022/02/04 16:12:49;;;;;;;3.97;3.58;;;7.50;99.90;;;;;;5068723;28;20029;-54
2022/02/04 16:15:35;;;;;;;3.95;3.55;;;7.50;99.90;;;;;;5068523;28;20032;-55
2022/02/04 16:18:06;;;;;;;3.30;3.00;;;7.40;99.90;;;;;;5068262;28;20155;-51
2022/02/04 16:23:31;;;;;;;3.95;3.22;;;7.40;99.90;;;;;;5068326;28;20422;-52
2022/02/04 16:28:39;;;;;;;3.40;2.67;;;7.40;99.90;;;;;;5066954;28;20081;-55
2022/02/04 16:31:08;;;;;;;5.75;3.22;;;7.40;99.90;;;;;;5067526;28;20024;-55
2022/02/04 16:33:35;;;;;;;4.25;3.13;;;7.40;99.90;;;;;;5067568;28;20016;-53
2022/02/04 16:36:04;;;;;;;3.60;3.05;;;7.40;99.90;;;;;;5066431;28;20500;-52
2022/02/04 16:38:31;;;;;;;5.03;3.83;;;7.40;99.90;;;;;;5068359;28;20025;-53
2022/02/04 16:41:03;;;;;;;4.97;3.40;;;7.40;99.90;;;;;;5067863;28;20060;-52
2022/02/04 16:43:30;;;;;;;5.13;3.88;;;7.40;99.90;;;;;;5067963;28;20042;-53
2022/02/04 16:45:55;;;;;;;4.15;3.67;;;7.40;99.90;;;;;;5069594;28;20040;-53
2022/02/04 16:48:22;;;;;;;5.25;4.47;;;7.30;99.90;;;;;;5072017;28;20056;-52
2022/02/04 16:50:50;;;;;;;6.20;5.05;;;7.30;99.90;;;;;;5071954;28;20441;-52
2022/02/04 16:53:16;;;;;;;5.28;4.78;;;7.30;99.90;;;;;;5071348;28;20828;-52
2022/02/04 16:55:42;;;;;;;6.13;5.53;;;7.30;99.90;;;;;;5070925;28;20048;-51
2022/02/04 16:58:08;;;;;;;6.22;5.63;;;7.20;99.90;;;;;;5073289;28;20047;-52
2022/02/04 17:00:34;;;;;;;6.70;6.05;;;7.20;99.90;;;;;;5069977;28;20040;-53
2022/02/04 17:03:07;;;;;;;9.80;6.32;;;7.20;99.90;;;;;;5071594;28;20172;-54
2022/02/04 17:05:39;;;;;;;1.75;1.65;;;7.10;99.90;;;;;;5070790;28;20029;-52
2022/02/04 17:08:09;;;;;;;1.85;1.52;;;6.70;99.90;;;;;;5071634;28;20035;-57
2022/02/04 17:10:41;;;;;;;0.82;0.70;;;6.20;99.90;;;;;;5071634;28;20041;-52
2022/02/04 17:13:07;;;;;;;2.47;1.02;;;5.80;99.90;;;;;;5070801;28;20024;-55
2022/02/04 17:15:35;;;;;;;1.10;0.75;;;5.60;99.90;;;;;;5072412;28;20016;-52
2022/02/04 17:18:03;;;;;;;3.83;1.48;;;5.30;99.90;;;;;;5071399;28;20047;-52
2022/02/04 17:20:29;;;;;;;0.43;0.43;;;5.20;99.90;;;;;;5070819;28;20392;-54
2022/02/04 17:22:57;;;;;;;1.60;1.25;;;5.00;99.90;;;;;;5068593;28;20071;-53
2022/02/04 17:25:27;;;;;;;6.10;3.65;;;4.90;99.90;;;;;;5051422;28;20047;-53
2022/02/04 17:27:54;;;;;;;5.72;3.70;;;4.80;99.90;;;;;;5070095;28;20028;-53
2022/02/04 17:30:22;;;;;;;2.80;1.20;;;4.70;99.90;;;;;;5071394;28;20496;-55
2022/02/04 17:32:49;;;;;;;1.00;0.50;;;4.60;99.90;;;;;;5071366;28;20055;-55
2022/02/04 17:35:17;;;;;;;1.77;0.77;;;4.40;99.90;;;;;;5071099;28;20024;-53
2022/02/04 17:37:43;;;;;;;1.17;0.80;;;4.20;99.90;;;;;;5071423;28;20028;-54
2022/02/04 17:40:12;;;;;;;1.58;0.80;;;4.00;99.90;;;;;;5072311;28;20630;-54
2022/02/04 17:42:40;;;;;;;1.15;0.52;;;3.80;99.90;;;;;;5055417;28;20621;-53
2022/02/04 17:45:12;;;;;;;1.15;0.85;;;3.80;99.90;;;;;;5071851;28;20029;-52
2022/02/04 17:47:38;;;;;;;0.65;0.65;;;3.60;99.90;;;;;;5071659;28;20596;-53
2022/02/04 17:50:21;;;;;;;0.80;0.50;;;3.50;99.90;;;;;;5070668;28;20039;-53
2022/02/04 17:52:53;;;;;;;2.15;0.88;;;3.40;99.90;;;;;;5070182;28;20028;-51
2022/02/04 17:55:26;;;;;;;0.50;0.50;;;3.40;99.90;;;;;;5071634;28;20033;-52
2022/02/04 17:57:55;;;;;;;1.08;0.65;;;3.30;99.90;;;;;;5069917;28;20111;-52
2022/02/04 18:06:12;;;;;;;1.27;0.70;;;3.00;99.90;;;;;;5039551;28;20127;-54
2022/02/04 18:08:38;;;;;;;0.55;0.55;;;2.90;99.90;;;;;;5070966;28;20484;-53
2022/02/04 18:11:05;;;;;;;0.45;0.45;;;2.80;99.90;;;;;;5070834;28;20032;-51
2022/02/04 18:13:32;;;;;;;0.63;0.60;;;2.80;99.90;;;;;;5052592;28;20603;-55
2022/02/04 18:15:58;;;;;;;0.52;0.50;;;2.70;99.90;;;;;;5052626;28;20029;-52
2022/02/04 18:18:24;;;;;;;0.90;0.90;;;2.70;99.90;;;;;;5070362;28;20103;-53
2022/02/04 18:20:51;;;;;;;0.93;0.80;;;2.60;99.90;;;;;;5070323;28;20135;-53
2022/02/04 18:23:20;;;;;;;1.00;0.80;;;2.60;99.90;;;;;;5070059;28;20431;-52
2022/02/04 18:25:50;;;;;;;2.10;0.70;;;2.60;99.90;;;;;;5069860;28;20450;-53
2022/02/04 18:28:16;;;;;;;1.02;0.88;;;2.60;99.90;;;;;;5069799;28;20020;-54
2022/02/04 18:30:42;;;;;;;0.75;0.75;;;2.60;99.90;;;;;;5069915;28;20032;-52
2022/02/04 18:33:08;;;;;;;2.75;1.25;;;2.60;99.90;;;;;;5070132;28;20393;-52
2022/02/04 18:35:33;;;;;;;1.30;1.20;;;2.60;99.90;;;;;;5069468;28;20028;-54
2022/02/04 18:38:15;;;;;;;2.53;1.50;;;2.60;99.90;;;;;;5070007;28;20503;-52
2022/02/04 18:41:07;;;;;;;2.13;1.60;;;2.60;99.90;;;;;;5070263;28;20086;-53
2022/02/04 18:46:28;;;;;;;2.35;2.15;;;2.50;99.90;;;;;;5070159;28;20135;-52
2022/02/04 18:49:00;;;;;;;1.80;1.70;;;2.60;99.90;;;;;;5069447;28;20033;-54
2022/02/04 18:51:54;;;;;;;19.20;7.78;;;2.50;99.90;;;;;;5069523;28;20062;-52
2022/02/04 18:57:08;;;;;;;1.83;1.55;;;2.60;99.90;;;;;;5069009;28;20075;-52
2022/02/04 18:59:45;;;;;;;1.75;1.58;;;2.50;99.90;;;;;;5068978;28;20028;-52
2022/02/04 19:02:11;;;;;;;1.63;1.52;;;2.50;99.90;;;;;;5069333;28;20036;-52
2022/02/04 19:04:44;;;;;;;2.40;2.03;;;2.50;99.90;;;;;;5069086;28;20036;-53
2022/02/04 19:07:16;;;;;;;3.10;2.15;;;2.50;99.90;;;;;;5052128;28;20040;-52
2022/02/04 19:09:44;;;;;;;4.07;3.13;;;2.50;99.90;;;;;;5068747;28;20055;-56
2022/02/04 19:12:15;;;;;;;2.13;1.88;;;2.50;99.90;;;;;;5069200;28;20028;-54
2022/02/04 19:20:03;;;;;;;2.20;2.00;;;2.30;99.90;;;;;;5066435;28;20174;-54
2022/02/04 19:25:00;;;;;;;2.17;1.98;;;2.30;99.90;;;;;;5068847;28;20365;-54
2022/02/04 19:27:25;;;;;;;1.95;1.85;;;2.30;99.90;;;;;;5068252;28;20024;-53
2022/02/04 19:29:51;;;;;;;2.85;2.28;;;2.30;99.90;;;;;;5069411;28;20025;-53
2022/02/04 19:32:17;;;;;;;2.55;2.35;;;2.20;99.90;;;;;;5068999;28;20024;-54
2022/02/04 19:34:44;;;;;;;2.28;2.08;;;2.20;99.90;;;;;;5069780;28;20019;-55
2022/02/04 19:37:10;;;;;;;2.10;2.00;;;2.10;99.90;;;;;;5069341;28;20056;-52
2022/02/04 19:39:37;;;;;;;2.88;2.58;;;2.10;99.90;;;;;;5068489;28;20024;-52
2022/02/04 19:42:08;;;;;;;3.47;1.73;;;2.10;99.90;;;;;;5068828;28;20039;-55
2022/02/04 19:44:36;;;;;;;5.32;2.67;;;2.10;99.90;;;;;;5068665;28;20020;-52
2022/02/04 19:47:08;;;;;;;9.75;5.65;;;2.10;99.90;;;;;;5068720;28;20103;-53
2022/02/04 19:49:45;;;;;;;3.85;3.50;;;2.20;99.90;;;;;;5068626;28;20116;-53
2022/02/04 20:13:16;;;;;;;7.90;4.97;;;2.30;99.90;;;;;;5077475;28;20048;-55
2022/02/04 20:24:51;;;;;;;68.90;25.35;;;2.10;99.90;;;;;;5080089;28;20086;-56
2022/02/04 20:27:19;;;;;;;30.48;11.98;;;2.10;99.90;;;;;;5063158;28;20128;-55
2022/02/04 20:29:45;;;;;;;11.75;5.55;;;2.10;99.90;;;;;;5080865;28;20087;-58
2022/02/04 20:32:10;;;;;;;14.30;7.18;;;2.10;99.90;;;;;;5079818;28;20071;-53
2022/02/04 20:34:36;;;;;;;38.88;18.38;;;2.10;99.90;;;;;;5080655;28;20050;-55
2022/02/04 20:37:02;;;;;;;40.03;21.08;;;2.10;99.90;;;;;;5062010;28;20115;-58
2022/02/04 20:39:37;;;;;;;41.03;16.67;;;2.20;99.90;;;;;;5081604;28;20161;-56
2022/02/04 20:42:02;;;;;;;64.30;23.88;;;2.20;99.90;;;;;;5081309;28;20020;-55